sensor_id;sensor_type;location;lat;lon;timestamp;P1;durP1;ratioP1;P2;durP2;ratioP2
53875;SDS011;39789;53.216;5.624;2024-02-04T00:00:05;23.55;;;4.53;;
53875;SDS011;39789;53.216;5.624;2024-02-04T00:02:31;17.65;;;4.38;;
53875;SDS011;39789;53.216;5.624;2024-02-04T00:04:59;13.07;;;4.60;;
53875;SDS011;39789;53.216;5.624;2024-02-04T00:07:28;16.58;;;5.10;;
53875;SDS011;39789;53.216;5.624;2024-02-04T00:09:54;14.50;;;4.18;;
53875;SDS011;39789;53.216;5.624;2024-02-04T00:12:22;16.95;;;5.07;;
53875;SDS011;39789;53.216;5.624;2024-02-04T00:14:48;17.38;;;4.38;;
53875;SDS011;39789;53.216;5.624;2024-02-04T00:17:15;20.98;;;5.43;;
53875;SDS011;39789;53.216;5.624;2024-02-04T00:19:41;17.13;;;5.43;;
53875;SDS011;39789;53.216;5.624;2024-02-04T00:22:07;19.60;;;4.55;;
53875;SDS011;39789;53.216;5.624;2024-02-04T00:24:33;15.27;;;4.45;;
53875;SDS011;39789;53.216;5.624;2024-02-04T00:26:59;21.52;;;5.35;;
53875;SDS011;39789;53.216;5.624;2024-02-04T00:29:26;13.60;;;3.90;;
53875;SDS011;39789;53.216;5.624;2024-02-04T00:31:51;23.63;;;5.40;;
53875;SDS011;39789;53.216;5.624;2024-02-04T00:34:17;14.75;;;4.60;;
53875;SDS011;39789;53.216;5.624;2024-02-04T00:36:46;26.23;;;4.70;;
53875;SDS011;39789;53.216;5.624;2024-02-04T00:39:11;24.30;;;5.57;;
53875;SDS011;39789;53.216;5.624;2024-02-04T00:41:37;19.30;;;4.43;;
53875;SDS011;39789;53.216;5.624;2024-02-04T00:44:02;18.55;;;5.40;;
53875;SDS011;39789;53.216;5.624;2024-02-04T00:46:28;17.55;;;4.38;;
53875;SDS011;39789;53.216;5.624;2024-02-04T00:48:54;24.33;;;4.90;;
53875;SDS011;39789;53.216;5.624;2024-02-04T00:51:20;13.90;;;4.95;;
53875;SDS011;39789;53.216;5.624;2024-02-04T00:53:46;17.65;;;4.43;;
53875;SDS011;39789;53.216;5.624;2024-02-04T00:56:15;17.27;;;4.20;;
53875;SDS011;39789;53.216;5.624;2024-02-04T00:58:40;22.92;;;5.20;;
53875;SDS011;39789;53.216;5.624;2024-02-04T01:01:06;18.40;;;4.65;;
53875;SDS011;39789;53.216;5.624;2024-02-04T01:03:32;19.33;;;4.43;;
53875;SDS011;39789;53.216;5.624;2024-02-04T01:05:58;16.92;;;4.57;;
53875;SDS011;39789;53.216;5.624;2024-02-04T01:08:24;19.23;;;4.97;;
53875;SDS011;39789;53.216;5.624;2024-02-04T01:10:49;13.18;;;3.80;;
53875;SDS011;39789;53.216;5.624;2024-02-04T01:13:18;15.68;;;4.20;;
53875;SDS011;39789;53.216;5.624;2024-02-04T01:15:43;15.35;;;4.07;;
53875;SDS011;39789;53.216;5.624;2024-02-04T01:18:12;18.13;;;4.82;;
53875;SDS011;39789;53.216;5.624;2024-02-04T01:20:38;18.20;;;5.25;;
53875;SDS011;39789;53.216;5.624;2024-02-04T01:23:03;18.27;;;5.57;;
53875;SDS011;39789;53.216;5.624;2024-02-04T01:25:29;17.20;;;6.07;;
53875;SDS011;39789;53.216;5.624;2024-02-04T01:27:55;17.90;;;5.93;;
53875;SDS011;39789;53.216;5.624;2024-02-04T01:30:20;19.13;;;5.72;;
53875;SDS011;39789;53.216;5.624;2024-02-04T01:32:46;17.85;;;5.13;;
53875;SDS011;39789;53.216;5.624;2024-02-04T01:35:12;20.63;;;5.07;;
53875;SDS011;39789;53.216;5.624;2024-02-04T01:37:40;13.85;;;4.10;;
53875;SDS011;39789;53.216;5.624;2024-02-04T01:40:06;19.73;;;5.15;;
53875;SDS011;39789;53.216;5.624;2024-02-04T01:42:32;21.00;;;5.93;;
53875;SDS011;39789;53.216;5.624;2024-02-04T01:44:58;20.98;;;5.20;;
53875;SDS011;39789;53.216;5.624;2024-02-04T01:47:24;18.65;;;4.78;;
53875;SDS011;39789;53.216;5.624;2024-02-04T01:49:49;21.25;;;5.75;;
53875;SDS011;39789;53.216;5.624;2024-02-04T01:52:15;15.68;;;5.05;;
53875;SDS011;39789;53.216;5.624;2024-02-04T01:54:42;15.73;;;4.75;;
53875;SDS011;39789;53.216;5.624;2024-02-04T01:57:09;14.95;;;4.47;;
53875;SDS011;39789;53.216;5.624;2024-02-04T01:59:36;16.42;;;4.57;;
53875;SDS011;39789;53.216;5.624;2024-02-04T02:02:04;19.52;;;5.28;;
53875;SDS011;39789;53.216;5.624;2024-02-04T02:04:30;19.40;;;5.05;;
53875;SDS011;39789;53.216;5.624;2024-02-04T02:06:56;19.83;;;5.18;;
53875;SDS011;39789;53.216;5.624;2024-02-04T02:09:24;16.73;;;5.65;;
53875;SDS011;39789;53.216;5.624;2024-02-04T02:12:13;22.10;;;5.28;;
53875;SDS011;39789;53.216;5.624;2024-02-04T02:14:41;20.52;;;6.57;;
53875;SDS011;39789;53.216;5.624;2024-02-04T02:17:12;19.33;;;5.82;;
53875;SDS011;39789;53.216;5.624;2024-02-04T02:22:26;18.35;;;5.20;;
53875;SDS011;39789;53.216;5.624;2024-02-04T02:24:58;21.02;;;5.90;;
53875;SDS011;39789;53.216;5.624;2024-02-04T02:27:28;18.60;;;5.45;;
53875;SDS011;39789;53.216;5.624;2024-02-04T02:29:53;24.95;;;5.15;;
53875;SDS011;39789;53.216;5.624;2024-02-04T02:32:19;18.70;;;4.95;;
53875;SDS011;39789;53.216;5.624;2024-02-04T02:34:45;16.92;;;5.45;;
53875;SDS011;39789;53.216;5.624;2024-02-04T02:37:27;18.55;;;5.00;;
53875;SDS011;39789;53.216;5.624;2024-02-04T02:40:04;18.75;;;5.57;;
53875;SDS011;39789;53.216;5.624;2024-02-04T02:42:33;19.73;;;5.30;;
53875;SDS011;39789;53.216;5.624;2024-02-04T02:45:01;19.60;;;5.63;;
53875;SDS011;39789;53.216;5.624;2024-02-04T02:47:28;25.23;;;6.53;;
53875;SDS011;39789;53.216;5.624;2024-02-04T02:49:54;16.08;;;5.15;;
53875;SDS011;39789;53.216;5.624;2024-02-04T02:52:21;18.52;;;5.35;;
53875;SDS011;39789;53.216;5.624;2024-02-04T02:54:47;19.17;;;5.60;;
53875;SDS011;39789;53.216;5.624;2024-02-04T02:57:12;20.30;;;5.75;;
53875;SDS011;39789;53.216;5.624;2024-02-04T02:59:38;25.38;;;6.18;;
53875;SDS011;39789;53.216;5.624;2024-02-04T03:02:05;19.58;;;6.38;;
53875;SDS011;39789;53.216;5.624;2024-02-04T03:04:30;18.15;;;6.20;;
53875;SDS011;39789;53.216;5.624;2024-02-04T03:06:56;22.63;;;5.68;;
53875;SDS011;39789;53.216;5.624;2024-02-04T03:09:22;20.63;;;5.55;;
53875;SDS011;39789;53.216;5.624;2024-02-04T03:11:47;23.92;;;6.28;;
53875;SDS011;39789;53.216;5.624;2024-02-04T03:14:16;22.38;;;5.88;;
53875;SDS011;39789;53.216;5.624;2024-02-04T03:16:45;21.35;;;5.57;;
53875;SDS011;39789;53.216;5.624;2024-02-04T03:19:11;18.80;;;5.72;;
53875;SDS011;39789;53.216;5.624;2024-02-04T03:21:37;21.38;;;6.97;;
53875;SDS011;39789;53.216;5.624;2024-02-04T03:24:03;20.23;;;6.85;;
53875;SDS011;39789;53.216;5.624;2024-02-04T03:26:28;21.02;;;7.05;;
53875;SDS011;39789;53.216;5.624;2024-02-04T03:28:54;22.05;;;6.30;;
53875;SDS011;39789;53.216;5.624;2024-02-04T03:31:22;26.30;;;6.85;;
53875;SDS011;39789;53.216;5.624;2024-02-04T03:33:48;23.92;;;6.25;;
53875;SDS011;39789;53.216;5.624;2024-02-04T03:36:18;23.38;;;6.20;;
53875;SDS011;39789;53.216;5.624;2024-02-04T03:38:44;25.55;;;6.07;;
53875;SDS011;39789;53.216;5.624;2024-02-04T03:41:09;21.58;;;5.95;;
53875;SDS011;39789;53.216;5.624;2024-02-04T03:43:38;17.65;;;6.05;;
53875;SDS011;39789;53.216;5.624;2024-02-04T03:46:04;26.80;;;7.55;;
53875;SDS011;39789;53.216;5.624;2024-02-04T03:48:30;24.45;;;6.45;;
53875;SDS011;39789;53.216;5.624;2024-02-04T03:50:55;28.23;;;6.78;;
53875;SDS011;39789;53.216;5.624;2024-02-04T03:53:21;21.98;;;5.63;;
53875;SDS011;39789;53.216;5.624;2024-02-04T03:55:48;24.33;;;6.88;;
53875;SDS011;39789;53.216;5.624;2024-02-04T03:58:14;18.75;;;5.88;;
53875;SDS011;39789;53.216;5.624;2024-02-04T04:00:45;18.30;;;5.50;;
53875;SDS011;39789;53.216;5.624;2024-02-04T04:03:10;17.98;;;6.07;;
53875;SDS011;39789;53.216;5.624;2024-02-04T04:05:36;25.40;;;7.10;;
53875;SDS011;39789;53.216;5.624;2024-02-04T04:08:02;21.83;;;5.78;;
53875;SDS011;39789;53.216;5.624;2024-02-04T04:10:28;17.15;;;5.05;;
53875;SDS011;39789;53.216;5.624;2024-02-04T04:12:53;20.95;;;6.13;;
53875;SDS011;39789;53.216;5.624;2024-02-04T04:15:19;20.27;;;6.22;;
53875;SDS011;39789;53.216;5.624;2024-02-04T04:17:45;18.23;;;6.22;;
53875;SDS011;39789;53.216;5.624;2024-02-04T04:20:11;23.38;;;6.13;;
53875;SDS011;39789;53.216;5.624;2024-02-04T04:22:40;25.02;;;7.68;;
53875;SDS011;39789;53.216;5.624;2024-02-04T04:25:06;22.75;;;6.15;;
53875;SDS011;39789;53.216;5.624;2024-02-04T04:27:32;22.27;;;5.90;;
53875;SDS011;39789;53.216;5.624;2024-02-04T04:29:58;21.08;;;6.03;;
53875;SDS011;39789;53.216;5.624;2024-02-04T04:32:23;22.33;;;6.50;;
53875;SDS011;39789;53.216;5.624;2024-02-04T04:34:49;22.58;;;6.35;;
53875;SDS011;39789;53.216;5.624;2024-02-04T04:37:15;29.10;;;6.68;;
53875;SDS011;39789;53.216;5.624;2024-02-04T04:39:41;29.08;;;6.05;;
53875;SDS011;39789;53.216;5.624;2024-02-04T04:42:06;24.17;;;6.25;;
53875;SDS011;39789;53.216;5.624;2024-02-04T04:44:32;17.00;;;5.20;;
53875;SDS011;39789;53.216;5.624;2024-02-04T04:46:58;30.58;;;6.75;;
53875;SDS011;39789;53.216;5.624;2024-02-04T04:49:23;18.55;;;6.45;;
53875;SDS011;39789;53.216;5.624;2024-02-04T04:51:49;18.27;;;5.03;;
53875;SDS011;39789;53.216;5.624;2024-02-04T04:54:14;24.10;;;5.80;;
53875;SDS011;39789;53.216;5.624;2024-02-04T04:56:40;22.60;;;6.05;;
53875;SDS011;39789;53.216;5.624;2024-02-04T04:59:06;19.05;;;5.35;;
53875;SDS011;39789;53.216;5.624;2024-02-04T05:01:32;21.65;;;6.25;;
53875;SDS011;39789;53.216;5.624;2024-02-04T05:04:01;21.52;;;6.05;;
53875;SDS011;39789;53.216;5.624;2024-02-04T05:06:27;22.52;;;6.20;;
53875;SDS011;39789;53.216;5.624;2024-02-04T05:08:52;26.90;;;6.15;;
53875;SDS011;39789;53.216;5.624;2024-02-04T05:11:18;19.20;;;5.50;;
53875;SDS011;39789;53.216;5.624;2024-02-04T05:13:44;21.33;;;6.00;;
53875;SDS011;39789;53.216;5.624;2024-02-04T05:16:12;25.45;;;6.40;;
53875;SDS011;39789;53.216;5.624;2024-02-04T05:18:39;25.33;;;6.53;;
53875;SDS011;39789;53.216;5.624;2024-02-04T05:21:04;27.90;;;6.45;;
53875;SDS011;39789;53.216;5.624;2024-02-04T05:23:30;24.95;;;5.40;;
53875;SDS011;39789;53.216;5.624;2024-02-04T05:25:56;22.23;;;6.15;;
53875;SDS011;39789;53.216;5.624;2024-02-04T05:28:21;21.58;;;6.05;;
53875;SDS011;39789;53.216;5.624;2024-02-04T05:30:47;21.90;;;5.63;;
53875;SDS011;39789;53.216;5.624;2024-02-04T05:33:16;21.15;;;6.00;;
53875;SDS011;39789;53.216;5.624;2024-02-04T05:35:41;20.38;;;4.88;;
53875;SDS011;39789;53.216;5.624;2024-02-04T05:38:10;15.00;;;4.38;;
53875;SDS011;39789;53.216;5.624;2024-02-04T05:40:35;25.83;;;5.97;;
53875;SDS011;39789;53.216;5.624;2024-02-04T05:43:01;23.00;;;5.43;;
53875;SDS011;39789;53.216;5.624;2024-02-04T05:45:32;22.50;;;5.32;;
53875;SDS011;39789;53.216;5.624;2024-02-04T05:47:58;24.35;;;5.85;;
53875;SDS011;39789;53.216;5.624;2024-02-04T05:50:24;22.58;;;6.25;;
53875;SDS011;39789;53.216;5.624;2024-02-04T05:52:49;24.95;;;5.78;;
53875;SDS011;39789;53.216;5.624;2024-02-04T05:55:15;22.10;;;5.90;;
53875;SDS011;39789;53.216;5.624;2024-02-04T05:57:41;24.30;;;6.70;;
53875;SDS011;39789;53.216;5.624;2024-02-04T06:00:07;25.25;;;6.00;;
53875;SDS011;39789;53.216;5.624;2024-02-04T06:02:35;20.80;;;5.28;;
53875;SDS011;39789;53.216;5.624;2024-02-04T06:05:01;25.50;;;7.50;;
53875;SDS011;39789;53.216;5.624;2024-02-04T06:07:27;17.88;;;6.15;;
53875;SDS011;39789;53.216;5.624;2024-02-04T06:09:54;21.50;;;5.90;;
53875;SDS011;39789;53.216;5.624;2024-02-04T06:12:25;22.15;;;5.95;;
53875;SDS011;39789;53.216;5.624;2024-02-04T06:14:52;17.38;;;5.88;;
53875;SDS011;39789;53.216;5.624;2024-02-04T06:17:17;21.92;;;5.15;;
53875;SDS011;39789;53.216;5.624;2024-02-04T06:19:43;27.35;;;6.55;;
53875;SDS011;39789;53.216;5.624;2024-02-04T06:22:09;20.52;;;6.55;;
53875;SDS011;39789;53.216;5.624;2024-02-04T06:24:34;18.17;;;4.78;;
53875;SDS011;39789;53.216;5.624;2024-02-04T06:27:02;22.95;;;6.20;;
53875;SDS011;39789;53.216;5.624;2024-02-04T06:29:28;19.85;;;5.43;;
53875;SDS011;39789;53.216;5.624;2024-02-04T06:31:53;21.65;;;5.90;;
53875;SDS011;39789;53.216;5.624;2024-02-04T06:34:19;20.58;;;6.25;;
53875;SDS011;39789;53.216;5.624;2024-02-04T06:36:45;18.27;;;5.85;;
53875;SDS011;39789;53.216;5.624;2024-02-04T06:39:11;19.27;;;5.05;;
53875;SDS011;39789;53.216;5.624;2024-02-04T06:41:36;17.55;;;5.72;;
53875;SDS011;39789;53.216;5.624;2024-02-04T06:44:05;19.42;;;6.00;;
53875;SDS011;39789;53.216;5.624;2024-02-04T06:46:31;21.20;;;6.13;;
53875;SDS011;39789;53.216;5.624;2024-02-04T06:48:57;21.92;;;5.32;;
53875;SDS011;39789;53.216;5.624;2024-02-04T06:51:22;21.83;;;5.75;;
53875;SDS011;39789;53.216;5.624;2024-02-04T06:53:51;16.58;;;5.75;;
53875;SDS011;39789;53.216;5.624;2024-02-04T06:56:16;15.68;;;5.18;;
53875;SDS011;39789;53.216;5.624;2024-02-04T06:58:42;19.40;;;5.38;;
53875;SDS011;39789;53.216;5.624;2024-02-04T07:01:09;15.88;;;4.55;;
53875;SDS011;39789;53.216;5.624;2024-02-04T07:03:35;24.70;;;6.50;;
53875;SDS011;39789;53.216;5.624;2024-02-04T07:06:00;19.40;;;5.50;;
53875;SDS011;39789;53.216;5.624;2024-02-04T07:08:26;18.65;;;6.05;;
53875;SDS011;39789;53.216;5.624;2024-02-04T07:10:55;23.45;;;6.38;;
53875;SDS011;39789;53.216;5.624;2024-02-04T07:13:21;21.33;;;5.55;;
53875;SDS011;39789;53.216;5.624;2024-02-04T07:15:47;24.15;;;6.13;;
53875;SDS011;39789;53.216;5.624;2024-02-04T07:18:13;15.40;;;6.10;;
53875;SDS011;39789;53.216;5.624;2024-02-04T07:20:38;18.20;;;5.43;;
53875;SDS011;39789;53.216;5.624;2024-02-04T07:23:04;24.80;;;6.35;;
53875;SDS011;39789;53.216;5.624;2024-02-04T07:25:30;19.98;;;5.82;;
53875;SDS011;39789;53.216;5.624;2024-02-04T07:27:57;20.42;;;5.82;;
53875;SDS011;39789;53.216;5.624;2024-02-04T07:30:23;17.17;;;5.10;;
53875;SDS011;39789;53.216;5.624;2024-02-04T07:32:49;18.58;;;6.20;;
53875;SDS011;39789;53.216;5.624;2024-02-04T07:35:15;17.17;;;5.80;;
53875;SDS011;39789;53.216;5.624;2024-02-04T07:37:41;26.05;;;5.30;;
53875;SDS011;39789;53.216;5.624;2024-02-04T07:40:07;21.50;;;5.43;;
53875;SDS011;39789;53.216;5.624;2024-02-04T07:42:33;19.77;;;5.78;;
53875;SDS011;39789;53.216;5.624;2024-02-04T07:44:59;19.65;;;5.63;;
53875;SDS011;39789;53.216;5.624;2024-02-04T07:47:24;22.05;;;6.00;;
53875;SDS011;39789;53.216;5.624;2024-02-04T07:49:50;17.80;;;6.35;;
53875;SDS011;39789;53.216;5.624;2024-02-04T07:52:16;17.73;;;6.10;;
53875;SDS011;39789;53.216;5.624;2024-02-04T07:54:43;22.30;;;6.45;;
53875;SDS011;39789;53.216;5.624;2024-02-04T07:57:12;20.10;;;5.43;;
53875;SDS011;39789;53.216;5.624;2024-02-04T07:59:38;22.48;;;6.13;;
53875;SDS011;39789;53.216;5.624;2024-02-04T08:02:03;22.02;;;5.40;;
53875;SDS011;39789;53.216;5.624;2024-02-04T08:04:29;21.05;;;6.18;;
53875;SDS011;39789;53.216;5.624;2024-02-04T08:06:55;20.88;;;6.07;;
53875;SDS011;39789;53.216;5.624;2024-02-04T08:09:21;14.45;;;5.65;;
53875;SDS011;39789;53.216;5.624;2024-02-04T08:11:47;15.93;;;6.20;;
53875;SDS011;39789;53.216;5.624;2024-02-04T08:14:12;18.63;;;5.72;;
53875;SDS011;39789;53.216;5.624;2024-02-04T08:16:42;18.27;;;5.35;;
53875;SDS011;39789;53.216;5.624;2024-02-04T08:19:08;23.35;;;5.55;;
53875;SDS011;39789;53.216;5.624;2024-02-04T08:21:34;21.05;;;5.70;;
53875;SDS011;39789;53.216;5.624;2024-02-04T08:23:59;15.88;;;6.00;;
53875;SDS011;39789;53.216;5.624;2024-02-04T08:26:25;16.00;;;5.45;;
53875;SDS011;39789;53.216;5.624;2024-02-04T08:28:51;19.33;;;6.55;;
53875;SDS011;39789;53.216;5.624;2024-02-04T08:31:16;14.35;;;4.57;;
53875;SDS011;39789;53.216;5.624;2024-02-04T08:33:42;16.55;;;5.25;;
53875;SDS011;39789;53.216;5.624;2024-02-04T08:36:08;15.45;;;5.45;;
53875;SDS011;39789;53.216;5.624;2024-02-04T08:38:36;17.02;;;5.55;;
53875;SDS011;39789;53.216;5.624;2024-02-04T08:41:02;18.15;;;6.10;;
53875;SDS011;39789;53.216;5.624;2024-02-04T08:43:30;16.65;;;5.53;;
53875;SDS011;39789;53.216;5.624;2024-02-04T08:45:55;17.42;;;5.72;;
53875;SDS011;39789;53.216;5.624;2024-02-04T08:48:24;17.48;;;5.22;;
53875;SDS011;39789;53.216;5.624;2024-02-04T08:50:49;16.25;;;4.60;;
53875;SDS011;39789;53.216;5.624;2024-02-04T08:53:15;14.63;;;4.90;;
53875;SDS011;39789;53.216;5.624;2024-02-04T08:55:41;18.85;;;5.47;;
53875;SDS011;39789;53.216;5.624;2024-02-04T08:58:09;15.05;;;4.68;;
53875;SDS011;39789;53.216;5.624;2024-02-04T09:00:34;16.90;;;4.85;;
53875;SDS011;39789;53.216;5.624;2024-02-04T09:03:00;18.23;;;4.90;;
53875;SDS011;39789;53.216;5.624;2024-02-04T09:05:26;12.45;;;4.35;;
53875;SDS011;39789;53.216;5.624;2024-02-04T09:07:51;19.02;;;4.05;;
53875;SDS011;39789;53.216;5.624;2024-02-04T09:10:20;12.73;;;4.50;;
53875;SDS011;39789;53.216;5.624;2024-02-04T09:12:46;17.88;;;5.50;;
53875;SDS011;39789;53.216;5.624;2024-02-04T09:15:12;12.13;;;4.90;;
53875;SDS011;39789;53.216;5.624;2024-02-04T09:17:38;19.33;;;6.05;;
53875;SDS011;39789;53.216;5.624;2024-02-04T09:20:04;15.68;;;4.97;;
53875;SDS011;39789;53.216;5.624;2024-02-04T09:22:30;16.05;;;4.80;;
53875;SDS011;39789;53.216;5.624;2024-02-04T09:24:56;13.85;;;4.80;;
53875;SDS011;39789;53.216;5.624;2024-02-04T09:27:22;15.48;;;4.78;;
53875;SDS011;39789;53.216;5.624;2024-02-04T09:29:48;14.93;;;4.78;;
53875;SDS011;39789;53.216;5.624;2024-02-04T09:32:13;10.48;;;3.92;;
53875;SDS011;39789;53.216;5.624;2024-02-04T09:34:39;11.43;;;4.35;;
53875;SDS011;39789;53.216;5.624;2024-02-04T09:37:05;14.07;;;4.03;;
53875;SDS011;39789;53.216;5.624;2024-02-04T09:39:31;9.23;;;4.05;;
53875;SDS011;39789;53.216;5.624;2024-02-04T09:41:57;17.38;;;4.93;;
53875;SDS011;39789;53.216;5.624;2024-02-04T09:44:23;15.93;;;4.65;;
53875;SDS011;39789;53.216;5.624;2024-02-04T09:46:49;13.50;;;4.28;;
53875;SDS011;39789;53.216;5.624;2024-02-04T09:49:15;14.32;;;3.92;;
53875;SDS011;39789;53.216;5.624;2024-02-04T09:51:41;19.38;;;4.95;;
53875;SDS011;39789;53.216;5.624;2024-02-04T09:54:10;14.40;;;4.32;;
53875;SDS011;39789;53.216;5.624;2024-02-04T09:56:37;16.27;;;4.60;;
53875;SDS011;39789;53.216;5.624;2024-02-04T09:59:03;17.40;;;5.22;;
53875;SDS011;39789;53.216;5.624;2024-02-04T10:01:30;18.23;;;5.18;;
53875;SDS011;39789;53.216;5.624;2024-02-04T10:03:56;20.48;;;5.50;;
53875;SDS011;39789;53.216;5.624;2024-02-04T10:06:23;15.50;;;4.97;;
53875;SDS011;39789;53.216;5.624;2024-02-04T10:08:49;19.52;;;5.15;;
53875;SDS011;39789;53.216;5.624;2024-02-04T10:11:15;20.65;;;5.60;;
53875;SDS011;39789;53.216;5.624;2024-02-04T10:13:44;14.82;;;5.10;;
53875;SDS011;39789;53.216;5.624;2024-02-04T10:16:11;17.17;;;5.97;;
53875;SDS011;39789;53.216;5.624;2024-02-04T10:18:37;15.82;;;5.50;;
53875;SDS011;39789;53.216;5.624;2024-02-04T10:21:14;22.40;;;5.40;;
53875;SDS011;39789;53.216;5.624;2024-02-04T10:23:44;14.82;;;4.60;;
53875;SDS011;39789;53.216;5.624;2024-02-04T10:26:16;15.18;;;4.57;;
53875;SDS011;39789;53.216;5.624;2024-02-04T10:28:45;13.07;;;4.22;;
53875;SDS011;39789;53.216;5.624;2024-02-04T10:31:12;14.10;;;4.07;;
53875;SDS011;39789;53.216;5.624;2024-02-04T10:33:38;21.35;;;5.28;;
53875;SDS011;39789;53.216;5.624;2024-02-04T10:36:04;18.38;;;4.18;;
53875;SDS011;39789;53.216;5.624;2024-02-04T10:38:31;18.73;;;4.63;;
53875;SDS011;39789;53.216;5.624;2024-02-04T10:40:59;15.70;;;4.47;;
53875;SDS011;39789;53.216;5.624;2024-02-04T10:43:33;17.17;;;5.15;;
53875;SDS011;39789;53.216;5.624;2024-02-04T10:46:18;14.23;;;4.70;;
53875;SDS011;39789;53.216;5.624;2024-02-04T10:48:46;13.70;;;4.70;;
53875;SDS011;39789;53.216;5.624;2024-02-04T10:51:18;22.77;;;5.15;;
53875;SDS011;39789;53.216;5.624;2024-02-04T10:53:50;12.77;;;4.75;;
53875;SDS011;39789;53.216;5.624;2024-02-04T10:56:19;19.05;;;5.68;;
53875;SDS011;39789;53.216;5.624;2024-02-04T10:58:52;15.55;;;5.25;;
53875;SDS011;39789;53.216;5.624;2024-02-04T11:01:18;12.45;;;4.40;;
53875;SDS011;39789;53.216;5.624;2024-02-04T11:03:45;16.20;;;5.18;;
53875;SDS011;39789;53.216;5.624;2024-02-04T11:06:11;14.57;;;4.70;;
53875;SDS011;39789;53.216;5.624;2024-02-04T11:08:38;11.68;;;5.10;;
53875;SDS011;39789;53.216;5.624;2024-02-04T11:11:04;13.85;;;5.10;;
53875;SDS011;39789;53.216;5.624;2024-02-04T11:13:30;12.20;;;4.30;;
53875;SDS011;39789;53.216;5.624;2024-02-04T11:15:57;8.20;;;3.75;;
53875;SDS011;39789;53.216;5.624;2024-02-04T11:18:49;13.38;;;4.10;;
53875;SDS011;39789;53.216;5.624;2024-02-04T11:24:24;11.55;;;4.15;;
53875;SDS011;39789;53.216;5.624;2024-02-04T11:26:59;15.38;;;4.07;;
53875;SDS011;39789;53.216;5.624;2024-02-04T11:29:26;10.63;;;3.80;;
53875;SDS011;39789;53.216;5.624;2024-02-04T11:31:52;10.38;;;3.55;;
53875;SDS011;39789;53.216;5.624;2024-02-04T11:34:18;12.57;;;3.85;;
53875;SDS011;39789;53.216;5.624;2024-02-04T11:36:44;18.60;;;3.92;;
53875;SDS011;39789;53.216;5.624;2024-02-04T11:39:27;15.73;;;4.10;;
53875;SDS011;39789;53.216;5.624;2024-02-04T11:41:55;15.37;;;4.17;;
53875;SDS011;39789;53.216;5.624;2024-02-04T11:44:25;9.23;;;3.05;;
53875;SDS011;39789;53.216;5.624;2024-02-04T11:46:52;10.27;;;3.55;;
53875;SDS011;39789;53.216;5.624;2024-02-04T11:49:20;12.18;;;3.92;;
53875;SDS011;39789;53.216;5.624;2024-02-04T11:51:51;10.77;;;4.00;;
53875;SDS011;39789;53.216;5.624;2024-02-04T11:54:17;11.95;;;3.45;;
53875;SDS011;39789;53.216;5.624;2024-02-04T11:56:52;15.40;;;3.63;;
53875;SDS011;39789;53.216;5.624;2024-02-04T11:59:19;11.60;;;3.30;;
53875;SDS011;39789;53.216;5.624;2024-02-04T12:01:46;12.88;;;3.65;;
53875;SDS011;39789;53.216;5.624;2024-02-04T12:04:16;11.80;;;3.72;;
53875;SDS011;39789;53.216;5.624;2024-02-04T12:06:42;18.60;;;4.38;;
53875;SDS011;39789;53.216;5.624;2024-02-04T12:09:08;9.38;;;3.58;;
53875;SDS011;39789;53.216;5.624;2024-02-04T12:11:38;14.93;;;3.88;;
53875;SDS011;39789;53.216;5.624;2024-02-04T12:14:04;15.48;;;3.80;;
53875;SDS011;39789;53.216;5.624;2024-02-04T12:16:32;12.70;;;4.50;;
53875;SDS011;39789;53.216;5.624;2024-02-04T12:19:00;13.55;;;4.15;;
53875;SDS011;39789;53.216;5.624;2024-02-04T12:21:28;13.10;;;3.78;;
53875;SDS011;39789;53.216;5.624;2024-02-04T12:23:54;14.15;;;4.35;;
53875;SDS011;39789;53.216;5.624;2024-02-04T12:26:20;11.57;;;3.38;;
53875;SDS011;39789;53.216;5.624;2024-02-04T12:28:48;10.50;;;4.00;;
53875;SDS011;39789;53.216;5.624;2024-02-04T12:31:18;13.15;;;3.55;;
53875;SDS011;39789;53.216;5.624;2024-02-04T12:33:55;12.43;;;3.53;;
53875;SDS011;39789;53.216;5.624;2024-02-04T12:36:26;10.13;;;3.33;;
53875;SDS011;39789;53.216;5.624;2024-02-04T12:38:54;12.82;;;3.30;;
53875;SDS011;39789;53.216;5.624;2024-02-04T12:41:24;12.70;;;3.70;;
53875;SDS011;39789;53.216;5.624;2024-02-04T12:43:54;18.20;;;4.38;;
53875;SDS011;39789;53.216;5.624;2024-02-04T12:46:21;12.52;;;3.40;;
53875;SDS011;39789;53.216;5.624;2024-02-04T12:48:51;15.38;;;3.40;;
53875;SDS011;39789;53.216;5.624;2024-02-04T12:51:29;11.65;;;4.07;;
53875;SDS011;39789;53.216;5.624;2024-02-04T12:54:02;11.77;;;3.47;;
53875;SDS011;39789;53.216;5.624;2024-02-04T12:56:43;13.35;;;3.95;;
53875;SDS011;39789;53.216;5.624;2024-02-04T12:59:09;13.68;;;3.70;;
53875;SDS011;39789;53.216;5.624;2024-02-04T13:01:39;11.82;;;3.90;;
53875;SDS011;39789;53.216;5.624;2024-02-04T13:04:08;15.43;;;3.92;;
53875;SDS011;39789;53.216;5.624;2024-02-04T13:06:37;12.27;;;3.47;;
53875;SDS011;39789;53.216;5.624;2024-02-04T13:09:04;14.77;;;3.92;;
53875;SDS011;39789;53.216;5.624;2024-02-04T13:11:34;10.60;;;3.95;;
53875;SDS011;39789;53.216;5.624;2024-02-04T13:14:00;11.65;;;3.25;;
53875;SDS011;39789;53.216;5.624;2024-02-04T13:16:25;16.23;;;3.47;;
53875;SDS011;39789;53.216;5.624;2024-02-04T13:18:52;12.98;;;3.60;;
53875;SDS011;39789;53.216;5.624;2024-02-04T13:21:18;12.27;;;3.50;;
53875;SDS011;39789;53.216;5.624;2024-02-04T13:23:47;13.05;;;3.63;;
53875;SDS011;39789;53.216;5.624;2024-02-04T13:26:16;13.40;;;3.72;;
53875;SDS011;39789;53.216;5.624;2024-02-04T13:28:42;8.75;;;2.90;;
53875;SDS011;39789;53.216;5.624;2024-02-04T13:31:08;12.57;;;3.38;;
53875;SDS011;39789;53.216;5.624;2024-02-04T13:33:40;11.05;;;3.75;;
53875;SDS011;39789;53.216;5.624;2024-02-04T13:36:09;12.98;;;4.50;;
53875;SDS011;39789;53.216;5.624;2024-02-04T13:38:35;15.35;;;4.00;;
53875;SDS011;39789;53.216;5.624;2024-02-04T13:41:01;17.95;;;4.13;;
53875;SDS011;39789;53.216;5.624;2024-02-04T13:43:29;14.50;;;3.97;;
53875;SDS011;39789;53.216;5.624;2024-02-04T13:45:55;10.20;;;3.78;;
53875;SDS011;39789;53.216;5.624;2024-02-04T13:48:21;8.43;;;3.42;;
53875;SDS011;39789;53.216;5.624;2024-02-04T13:50:47;16.77;;;3.78;;
53875;SDS011;39789;53.216;5.624;2024-02-04T13:53:13;6.00;;;3.08;;
53875;SDS011;39789;53.216;5.624;2024-02-04T13:55:39;10.25;;;3.65;;
53875;SDS011;39789;53.216;5.624;2024-02-04T13:58:05;14.90;;;3.95;;
53875;SDS011;39789;53.216;5.624;2024-02-04T14:00:31;8.73;;;3.50;;
53875;SDS011;39789;53.216;5.624;2024-02-04T14:02:59;15.52;;;3.65;;
53875;SDS011;39789;53.216;5.624;2024-02-04T14:05:25;6.38;;;2.85;;
53875;SDS011;39789;53.216;5.624;2024-02-04T14:07:51;11.40;;;4.35;;
53875;SDS011;39789;53.216;5.624;2024-02-04T14:10:17;12.77;;;3.95;;
53875;SDS011;39789;53.216;5.624;2024-02-04T14:12:43;12.50;;;3.65;;
53875;SDS011;39789;53.216;5.624;2024-02-04T14:15:10;10.60;;;3.35;;
53875;SDS011;39789;53.216;5.624;2024-02-04T14:17:37;11.88;;;3.47;;
53875;SDS011;39789;53.216;5.624;2024-02-04T14:20:05;12.00;;;3.42;;
53875;SDS011;39789;53.216;5.624;2024-02-04T14:22:31;7.97;;;3.28;;
53875;SDS011;39789;53.216;5.624;2024-02-04T14:24:57;10.75;;;3.80;;
53875;SDS011;39789;53.216;5.624;2024-02-04T14:27:23;19.05;;;4.03;;
53875;SDS011;39789;53.216;5.624;2024-02-04T14:29:49;12.00;;;3.75;;
53875;SDS011;39789;53.216;5.624;2024-02-04T14:32:14;10.80;;;4.32;;
53875;SDS011;39789;53.216;5.624;2024-02-04T14:34:40;9.15;;;3.38;;
53875;SDS011;39789;53.216;5.624;2024-02-04T14:37:06;11.88;;;3.78;;
53875;SDS011;39789;53.216;5.624;2024-02-04T14:39:33;24.80;;;4.00;;